createdAt,value
2018-10-01T00:00:34.592Z,6.10
2018-10-01T00:04:42.730Z,5.90
2018-10-01T00:08:50.877Z,6.17
2018-10-01T00:12:59.405Z,6.50
2018-10-01T00:17:07.545Z,5.80
2018-10-01T00:21:21.124Z,5.60
2018-10-01T00:25:29.261Z,5.80
2018-10-01T00:29:37.443Z,5.42
2018-10-01T00:33:45.572Z,5.70
2018-10-01T00:37:53.704Z,5.80
2018-10-01T00:42:01.849Z,6.13
2018-10-01T00:46:09.983Z,6.40
2018-10-01T00:50:18.122Z,5.47
2018-10-01T00:54:26.261Z,5.87
2018-10-01T00:58:34.398Z,6.50
2018-10-01T01:02:42.561Z,6.30
2018-10-01T01:06:50.713Z,7.07
2018-10-01T01:10:58.864Z,6.80
2018-10-01T01:15:07.129Z,8.30
2018-10-01T01:19:15.281Z,11.37
2018-10-01T01:23:23.421Z,10.73
2018-10-01T01:27:31.556Z,9.20
2018-10-01T01:31:39.683Z,10.20
2018-10-01T01:35:47.843Z,9.30
2018-10-01T01:39:55.984Z,9.33
2018-10-01T01:44:04.178Z,10.17
2018-10-01T01:48:12.313Z,9.00
2018-10-01T01:52:20.460Z,10.05
2018-10-01T01:56:28.619Z,9.30
2018-10-01T02:00:36.816Z,10.10
2018-10-01T02:04:44.984Z,11.40
2018-10-01T02:08:53.152Z,8.40
2018-10-01T02:13:01.292Z,8.60
2018-10-01T02:17:09.416Z,9.20
2018-10-01T02:21:17.552Z,14.40
2018-10-01T02:25:25.463Z,19.20
2018-10-01T02:29:33.396Z,13.50
2018-10-01T02:33:41.544Z,10.53
2018-10-01T02:37:49.680Z,8.83
2018-10-01T02:41:57.815Z,10.33
2018-10-01T02:46:06.799Z,8.43
2018-10-01T02:50:15.016Z,8.87
2018-10-01T02:54:29.653Z,8.90
2018-10-01T02:58:37.805Z,8.93
2018-10-01T03:02:45.934Z,9.43
2018-10-01T03:06:54.065Z,9.93
2018-10-01T03:11:02.233Z,12.93
2018-10-01T03:15:10.441Z,12.15
2018-10-01T03:19:18.561Z,13.63
2018-10-01T03:23:26.725Z,14.70
2018-10-01T03:27:34.872Z,12.87
2018-10-01T03:31:42.792Z,21.40
2018-10-01T03:35:50.964Z,18.67
2018-10-01T03:39:59.157Z,19.63
2018-10-01T03:44:07.356Z,18.93
2018-10-01T03:48:15.254Z,14.90
2018-10-01T03:52:23.425Z,14.97
2018-10-01T03:56:31.573Z,12.27
2018-10-01T04:00:39.729Z,11.93
2018-10-01T04:04:47.908Z,9.77
2018-10-01T04:08:56.110Z,10.27
2018-10-01T04:13:04.245Z,11.10
2018-10-01T04:17:12.454Z,10.50
2018-10-01T04:21:20.607Z,10.90
2018-10-01T04:25:28.831Z,11.70
2018-10-01T04:29:36.984Z,10.67
2018-10-01T04:33:45.191Z,11.50
2018-10-01T04:37:53.340Z,11.90
2018-10-01T04:42:01.533Z,11.83
2018-10-01T04:46:09.692Z,11.40
2018-10-01T04:50:17.611Z,10.20
2018-10-01T04:54:25.908Z,12.40
2018-10-01T04:58:34.214Z,11.50
2018-10-01T05:02:42.231Z,10.30
2018-10-01T05:06:50.399Z,11.70
2018-10-01T05:10:58.832Z,11.27
2018-10-01T05:15:06.997Z,12.23
2018-10-01T05:19:15.152Z,13.37
2018-10-01T05:23:23.324Z,13.10
2018-10-01T05:27:31.504Z,14.40
2018-10-01T05:31:39.683Z,13.97
2018-10-01T05:35:47.853Z,15.13
2018-10-01T05:39:56.024Z,12.57
2018-10-01T05:44:04.188Z,13.73
2018-10-01T05:48:12.361Z,13.30
2018-10-01T05:52:20.536Z,14.57
2018-10-01T05:56:28.692Z,12.97
2018-10-01T06:00:36.872Z,11.80
2018-10-01T06:04:45.074Z,12.60
2018-10-01T06:08:53.192Z,16.00
2018-10-01T06:13:01.336Z,11.17
2018-10-01T06:17:09.873Z,12.60
2018-10-01T06:21:18.011Z,10.27
2018-10-01T06:25:26.149Z,11.47
2018-10-01T06:29:34.296Z,10.87
2018-10-01T06:33:42.441Z,13.03
2018-10-01T06:37:50.842Z,11.13
2018-10-01T06:41:59.067Z,10.03
2018-10-01T06:46:07.452Z,10.43
2018-10-01T06:50:15.626Z,10.67
2018-10-01T06:54:23.761Z,10.23
2018-10-01T06:58:31.908Z,9.03
2018-10-01T07:02:40.065Z,11.63
2018-10-01T07:06:48.224Z,11.60
2018-10-01T07:10:56.386Z,9.10
2018-10-01T07:15:04.548Z,11.67
2018-10-01T07:19:12.752Z,21.53
2018-10-01T07:23:21.047Z,10.83
2018-10-01T07:27:29.118Z,13.80
2018-10-01T07:31:37.312Z,9.13
2018-10-01T07:35:45.455Z,8.53
2018-10-01T07:39:53.580Z,7.97
2018-10-01T07:44:01.760Z,8.87
2018-10-01T07:48:09.900Z,6.20
2018-10-01T07:52:18.261Z,5.40
2018-10-01T07:56:26.738Z,5.53
2018-10-01T08:00:34.881Z,5.83
2018-10-01T08:04:43.021Z,5.47
2018-10-01T08:08:51.157Z,4.97
2018-10-01T08:12:59.524Z,3.83
2018-10-01T08:17:07.676Z,3.27
2018-10-01T08:21:15.832Z,3.83
2018-10-01T08:25:24.020Z,3.83
2018-10-01T08:29:32.204Z,3.97
2018-10-01T08:33:40.342Z,3.37
2018-10-01T08:37:48.252Z,3.60
2018-10-01T08:41:56.401Z,3.10
2018-10-01T08:46:04.621Z,2.70
2018-10-01T08:51:16.101Z,3.40
2018-10-01T08:55:24.392Z,2.60
2018-10-01T08:59:32.990Z,2.67
2018-10-01T09:03:41.148Z,2.70
2018-10-01T09:07:49.338Z,2.20
2018-10-01T09:11:57.600Z,2.60
2018-10-01T09:16:05.832Z,2.70
2018-10-01T09:20:14.020Z,2.87
2018-10-01T09:24:22.152Z,2.70
2018-10-01T09:28:30.388Z,4.70
2018-10-01T09:32:38.603Z,5.37
2018-10-01T09:36:46.723Z,3.40
2018-10-01T09:40:54.879Z,8.03
2018-10-01T09:45:03.064Z,23.33
2018-10-01T09:49:11.220Z,5.80
2018-10-01T09:53:19.419Z,9.73
2018-10-01T09:57:27.603Z,5.10
2018-10-01T10:01:35.752Z,28.37
2018-10-01T10:05:43.921Z,6.83
2018-10-01T10:09:52.099Z,7.27
2018-10-01T10:14:00.262Z,8.80
2018-10-01T10:18:08.424Z,5.13
2018-10-01T10:22:17.558Z,4.70
2018-10-01T10:26:25.753Z,4.20
2018-10-01T10:30:33.882Z,3.30
2018-10-01T10:34:42.012Z,4.90
2018-10-01T10:38:50.157Z,3.60
2018-10-01T10:42:58.315Z,3.30
2018-10-01T10:47:06.448Z,3.07
2018-10-01T10:51:14.640Z,3.33
2018-10-01T10:55:22.782Z,2.80
2018-10-01T10:59:30.977Z,3.17
2018-10-01T11:03:39.137Z,3.17
2018-10-01T11:07:47.288Z,3.20
2018-10-01T11:11:55.428Z,2.83
2018-10-01T11:16:03.601Z,2.60
2018-10-01T11:20:11.885Z,3.00
2018-10-01T11:24:19.961Z,3.30
2018-10-01T11:28:28.116Z,2.40
2018-10-01T11:32:36.268Z,2.50
2018-10-01T11:36:44.451Z,3.47
2018-10-01T11:40:52.600Z,2.70
2018-10-01T11:45:00.825Z,2.63
2018-10-01T11:49:08.915Z,2.77
2018-10-01T11:53:17.081Z,2.77
2018-10-01T11:57:25.338Z,2.80
2018-10-01T12:01:33.777Z,2.50
2018-10-01T12:05:42.852Z,2.40
2018-10-01T12:09:51.149Z,2.03
2018-10-01T12:13:59.206Z,2.20
2018-10-01T12:18:07.366Z,2.60
2018-10-01T12:22:15.635Z,2.53
2018-10-01T12:26:23.836Z,1.90
2018-10-01T12:30:32.030Z,1.97
2018-10-01T12:34:40.173Z,2.10
2018-10-01T12:38:48.336Z,1.80
2018-10-01T12:42:56.549Z,1.80
2018-10-01T12:47:04.657Z,2.30
2018-10-01T12:51:12.799Z,2.20
2018-10-01T12:55:21.004Z,2.00
2018-10-01T12:59:29.259Z,2.40
2018-10-01T13:03:37.080Z,2.90
2018-10-01T13:07:45.253Z,2.37
2018-10-01T13:11:53.412Z,7.30
2018-10-01T13:16:01.579Z,5.03
2018-10-01T13:20:09.765Z,2.93
2018-10-01T13:24:18.164Z,3.40
2018-10-01T13:28:26.228Z,4.10
2018-10-01T13:32:34.381Z,4.50
2018-10-01T13:36:42.636Z,3.83
2018-10-01T13:40:50.765Z,3.33
2018-10-01T13:44:58.912Z,3.67
2018-10-01T13:49:07.104Z,3.43
2018-10-01T13:53:15.232Z,3.03
2018-10-01T13:57:23.384Z,3.80
2018-10-01T14:01:31.563Z,3.10
2018-10-01T14:05:39.769Z,3.13
2018-10-01T14:09:47.908Z,2.90
2018-10-01T14:13:56.116Z,2.70
2018-10-01T14:18:03.979Z,3.27
2018-10-01T14:22:12.172Z,3.83
2018-10-01T14:26:20.321Z,2.93
2018-10-01T14:30:28.533Z,2.90
2018-10-01T14:34:36.620Z,3.00
2018-10-01T14:38:44.764Z,2.70
2018-10-01T14:42:52.970Z,2.97
2018-10-01T14:47:01.082Z,3.53
2018-10-01T14:51:09.276Z,2.70
2018-10-01T14:55:17.434Z,3.73
2018-10-01T14:59:25.565Z,3.43
2018-10-01T15:03:33.781Z,4.17
2018-10-01T15:07:41.920Z,3.30
2018-10-01T15:11:50.065Z,3.40
2018-10-01T15:15:58.331Z,3.67
2018-10-01T15:20:06.501Z,3.73
2018-10-01T15:24:14.789Z,3.90
2018-10-01T15:28:22.657Z,3.20
2018-10-01T15:32:30.824Z,3.50
2018-10-01T15:36:39.097Z,4.40
2018-10-01T15:40:47.215Z,4.23
2018-10-01T15:44:55.448Z,4.97
2018-10-01T15:49:03.645Z,3.90
2018-10-01T15:53:11.809Z,4.27
2018-10-01T15:57:20.160Z,3.80
2018-10-01T16:01:28.185Z,5.77
2018-10-01T16:05:36.373Z,4.27
2018-10-01T16:09:44.566Z,4.27
2018-10-01T16:13:52.717Z,4.20
2018-10-01T16:18:00.940Z,4.47
2018-10-01T16:22:09.078Z,4.67
2018-10-01T16:26:17.231Z,3.70
2018-10-01T16:30:25.420Z,3.60
2018-10-01T16:34:33.564Z,3.00
2018-10-01T16:38:42.024Z,2.63
2018-10-01T16:42:50.295Z,2.80
2018-10-01T16:46:58.473Z,3.20
2018-10-01T16:51:06.665Z,3.97
2018-10-01T16:55:14.804Z,3.57
2018-10-01T16:59:22.986Z,2.80
2018-10-01T17:03:31.144Z,2.73
2018-10-01T17:07:39.284Z,2.80
2018-10-01T17:11:47.476Z,3.10
2018-10-01T17:15:55.852Z,2.97
2018-10-01T17:20:04.124Z,3.10
2018-10-01T17:24:12.292Z,3.17
2018-10-01T17:28:20.448Z,3.00
2018-10-01T17:32:28.670Z,2.93
2018-10-01T17:36:36.833Z,3.70
2018-10-01T17:40:44.992Z,3.60
2018-10-01T17:44:53.149Z,6.77
2018-10-01T17:49:01.317Z,11.57
2018-10-01T17:53:09.495Z,4.40
2018-10-01T17:57:17.644Z,4.00
2018-10-01T18:01:25.864Z,3.60
2018-10-01T18:05:34.013Z,5.27
2018-10-01T18:09:42.189Z,3.53
2018-10-01T18:13:50.400Z,4.00
2018-10-01T18:17:58.633Z,4.50
2018-10-01T18:22:06.741Z,4.17
2018-10-01T18:26:14.876Z,4.10
2018-10-01T18:30:23.103Z,3.93
2018-10-01T18:34:31.276Z,4.77
2018-10-01T18:38:39.429Z,4.80
2018-10-01T18:42:47.584Z,4.80
2018-10-01T18:46:55.784Z,4.50
2018-10-01T18:51:03.923Z,3.90
2018-10-01T18:55:12.089Z,4.13
2018-10-01T18:59:20.242Z,3.50
2018-10-01T19:03:28.223Z,4.07
2018-10-01T19:07:36.612Z,4.37
2018-10-01T19:11:44.777Z,4.00
2018-10-01T19:15:52.959Z,4.40
2018-10-01T19:20:01.116Z,3.63
2018-10-01T19:24:09.320Z,4.10
2018-10-01T19:28:17.465Z,4.00
2018-10-01T19:32:25.616Z,4.20
2018-10-01T19:36:33.781Z,3.80
2018-10-01T19:40:41.980Z,4.47
2018-10-01T19:44:50.162Z,7.13
2018-10-01T19:48:58.072Z,5.60
2018-10-01T19:53:06.609Z,10.27
2018-10-01T19:57:14.833Z,14.30
2018-10-01T20:01:22.977Z,8.50
2018-10-01T20:05:31.140Z,8.07
2018-10-01T20:09:42.928Z,6.03
2018-10-01T20:13:51.224Z,5.00
2018-10-01T20:17:59.390Z,6.70
2018-10-01T20:22:11.244Z,8.20
2018-10-01T20:26:19.379Z,21.97
2018-10-01T20:30:27.584Z,16.30
2018-10-01T20:34:35.772Z,10.10
2018-10-01T20:38:43.964Z,6.37
2018-10-01T20:42:52.102Z,6.23
2018-10-01T20:47:00.443Z,4.40
2018-10-01T20:51:08.491Z,5.80
2018-10-01T20:55:16.662Z,5.43
2018-10-01T20:59:24.941Z,10.83
2018-10-01T21:03:33.022Z,5.27
2018-10-01T21:07:41.203Z,7.20
2018-10-01T21:11:49.390Z,8.23
2018-10-01T21:15:57.540Z,5.50
2018-10-01T21:20:05.752Z,4.37
2018-10-01T21:24:13.903Z,5.90
2018-10-01T21:28:22.041Z,4.60
2018-10-01T21:32:30.192Z,4.57
2018-10-01T21:36:38.337Z,3.77
2018-10-01T21:40:46.517Z,4.17
2018-10-01T21:44:54.656Z,4.12
2018-10-01T21:49:02.792Z,3.53
2018-10-01T21:53:10.956Z,4.10
2018-10-01T21:57:19.403Z,3.87
2018-10-01T22:01:32.906Z,3.67
2018-10-01T22:05:41.078Z,3.27
2018-10-01T22:09:49.793Z,3.33
2018-10-01T22:13:57.983Z,3.70
2018-10-01T22:18:06.126Z,4.00
2018-10-01T22:22:14.292Z,3.90
2018-10-01T22:26:22.227Z,3.03
2018-10-01T22:30:30.396Z,4.37
2018-10-01T22:34:38.577Z,3.10
2018-10-01T22:38:46.713Z,3.33
2018-10-01T22:42:54.865Z,3.40
2018-10-01T22:47:03.036Z,3.60
2018-10-01T22:51:11.180Z,3.37
2018-10-01T22:55:19.368Z,6.90
2018-10-01T22:59:27.505Z,3.30
2018-10-01T23:03:35.644Z,3.00
2018-10-01T23:07:43.809Z,3.17
2018-10-01T23:11:51.945Z,3.10
2018-10-01T23:16:00.139Z,3.63
2018-10-01T23:20:08.313Z,3.80
2018-10-01T23:24:16.461Z,4.07
2018-10-01T23:28:24.612Z,4.50
2018-10-01T23:32:32.768Z,5.00
2018-10-01T23:36:40.931Z,5.10
2018-10-01T23:40:49.112Z,5.80
2018-10-01T23:44:57.315Z,7.83
2018-10-01T23:49:05.476Z,5.03
2018-10-01T23:53:13.644Z,5.40
2018-10-01T23:57:21.813Z,5.10
